| time (UTC) | temp F | wind direction | speed knots | gust knots | rain 1hr in | rain 24hr in | rain mn in | humidity % | barometer mb |
| 20260505194807 | 78 | 209 | 0.0 | 5.2 | 0.00 | 0.00 | 0.00 | 36 | 980.8 |
| 20260505194307 | 78 | 204 | 0.9 | 5.2 | 0.00 | 0.00 | 0.00 | 35 | 981.0 |
| 20260505193807 | 78 | 225 | 0.0 | 4.3 | 0.00 | 0.00 | 0.00 | 35 | 981.0 |
| 20260505191807 | 78 | 211 | 0.9 | 2.6 | 0.00 | 0.00 | 0.00 | 34 | 981.3 |
| 20260505191306 | 78 | 203 | 0.9 | 2.6 | 0.00 | 0.00 | 0.00 | 34 | 981.3 |
| 20260505190808 | 78 | 190 | 0.9 | 2.6 | 0.00 | 0.00 | 0.00 | 33 | 981.4 |
| 20260505190308 | 78 | 195 | 0.9 | 4.3 | 0.00 | 0.00 | 0.00 | 35 | 981.4 |
| 20260505184806 | 78 | 207 | 0.0 | 2.6 | 0.00 | 0.00 | 0.00 | 33 | 981.4 |
| 20260505184307 | 78 | 193 | 0.9 | 2.6 | 0.00 | 0.00 | 0.00 | 34 | 981.5 |
| 20260505183807 | 79 | 230 | 0.0 | 4.3 | 0.00 | 0.00 | 0.00 | 33 | 981.5 |
| 20260505183307 | 79 | 214 | 0.0 | 4.3 | 0.00 | 0.00 | 0.00 | 32 | 981.5 |
| 20260505181806 | 79 | 173 | 0.0 | 2.6 | 0.00 | 0.00 | 0.00 | 32 | 981.9 |
| 20260505180807 | 79 | 217 | 0.9 | 2.6 | 0.00 | 0.00 | 0.00 | 35 | 982.1 |
| 20260505180307 | 79 | 246 | 0.0 | 4.3 | 0.00 | 0.00 | 0.00 | 34 | 982.4 |
| 20260505174306 | 79 | 165 | 0.0 | 2.6 | 0.00 | 0.00 | 0.00 | 34 | 982.4 |
| 20260505173307 | 79 | 286 | 0.0 | 2.6 | 0.00 | 0.00 | 0.00 | 35 | 982.6 |
| 20260505171806 | 79 | 194 | 0.9 | 2.6 | 0.00 | 0.00 | 0.00 | 35 | 982.5 |
| 20260505171306 | 79 | 201 | 0.0 | 4.3 | 0.00 | 0.00 | 0.00 | 37 | 982.4 |
| 20260505170808 | 78 | 97 | 0.9 | 4.3 | 0.00 | 0.00 | 0.00 | 36 | 982.3 |
| 20260505170306 | 78 | 165 | 0.9 | 4.3 | 0.00 | 0.00 | 0.00 | 37 | 982.4 |
| 20260505164807 | 77 | 186 | 0.0 | 4.3 | 0.00 | 0.00 | 0.00 | 37 | 982.6 |
| 20260505164306 | 76 | 190 | 0.9 | 4.3 | 0.00 | 0.00 | 0.00 | 37 | 982.6 |
| 20260505163307 | 76 | 185 | 0.9 | 4.3 | 0.00 | 0.00 | 0.00 | 41 | 982.7 |
| 20260505161806 | 76 | 179 | 0.9 | 2.6 | 0.00 | 0.00 | 0.00 | 40 | 982.7 |
| 20260505161306 | 76 | 198 | 0.0 | 1.7 | 0.00 | 0.00 | 0.00 | 44 | 982.8 |
| 20260505160306 | 76 | 240 | 0.0 | 4.3 | 0.00 | 0.00 | 0.00 | 42 | 983.0 |
| 20260505153308 | 75 | 342 | 0.0 | 1.7 | 0.00 | 0.00 | 0.00 | 46 | 983.1 |
| 20260505151806 | 73 | 199 | 0.0 | 1.7 | 0.00 | 0.00 | 0.00 | 48 | 983.3 |
| 20260505151307 | 73 | 206 | 0.0 | 1.7 | 0.00 | 0.00 | 0.00 | 50 | 983.3 |
| 20260505150807 | 72 | 189 | 0.0 | 1.7 | 0.00 | 0.00 | 0.00 | 49 | 983.4 |
| 20260505140306 | 65 | 324 | 0.0 | 0.9 | 0.00 | 0.00 | 0.00 | 62 | 983.0 |
| 20260505130307 | 61 | 266 | 0.0 | 0.9 | 0.00 | 0.00 | 0.00 | 76 | 982.8 |
| 20260505124307 | 60 | 223 | 0.0 | 0.9 | 0.00 | 0.00 | 0.00 | 80 | 982.6 |
| 20260505123807 | 59 | 223 | 0.0 | 0.9 | 0.00 | 0.00 | 0.00 | 80 | 982.6 |
| 20260505123308 | 59 | 208 | 0.0 | 0.0 | 0.00 | 0.00 | 0.00 | 82 | 982.5 |
| 20260505121806 | 58 | 208 | 0.0 | 0.0 | 0.00 | 0.00 | 0.00 | 83 | 982.5 |
| 20260505121306 | 58 | 208 | 0.0 | 0.0 | 0.00 | 0.00 | 0.00 | 83 | 982.5 |
| 20260505120806 | 58 | 208 | 0.0 | 0.0 | 0.00 | 0.00 | 0.00 | 83 | 982.4 |
| 20260505120306 | 57 | 208 | 0.0 | 0.0 | 0.00 | 0.00 | 0.00 | 83 | 982.3 |
| 20260505114806 | 57 | 208 | 0.0 | 0.0 | 0.00 | 0.00 | 0.00 | 82 | 982.2 |
| 20260505114307 | 57 | 215 | 0.0 | 0.0 | 0.00 | 0.00 | 0.00 | 83 | 982.1 |
| 20260505113806 | 57 | 215 | 0.0 | 0.0 | 0.00 | 0.00 | 0.00 | 83 | 982.2 |
| 20260505111807 | 57 | 215 | 0.0 | 1.7 | 0.00 | 0.00 | 0.00 | 80 | 982.3 |
| 20260505110806 | 56 | 207 | 0.0 | 1.7 | 0.00 | 0.00 | 0.00 | 82 | 982.2 |
| 20260505101807 | 55 | 184 | 0.0 | 0.9 | 0.00 | 0.00 | 0.00 | 83 | 982.0 |
| 20260505101307 | 54 | 184 | 0.0 | 0.9 | 0.00 | 0.00 | 0.00 | 83 | 982.0 |
| 20260505100308 | 54 | 201 | 0.0 | 0.0 | 0.00 | 0.00 | 0.00 | 85 | 981.9 |
| 20260505094806 | 54 | 201 | 0.0 | 0.0 | 0.00 | 0.00 | 0.00 | 84 | 981.9 |
| 20260505094306 | 54 | 201 | 0.0 | 0.0 | 0.00 | 0.00 | 0.00 | 82 | 982.0 |
| 20260505093307 | 54 | 201 | 0.0 | 0.0 | 0.00 | 0.00 | 0.00 | 82 | 982.0 |
| 20260505091808 | 55 | 201 | 0.0 | 0.9 | 0.00 | 0.00 | 0.00 | 80 | 982.0 |
| 20260505091307 | 55 | 201 | 0.0 | 0.9 | 0.00 | 0.00 | 0.00 | 78 | 981.9 |
| 20260505090308 | 55 | 201 | 0.0 | 0.9 | 0.00 | 0.00 | 0.00 | 77 | 981.8 |
| 20260505084806 | 55 | 210 | 0.0 | 0.0 | 0.00 | 0.00 | 0.00 | 75 | 981.8 |
| 20260505084306 | 55 | 210 | 0.0 | 0.0 | 0.00 | 0.00 | 0.00 | 75 | 981.7 |
| 20260505083309 | 55 | 210 | 0.0 | 0.9 | 0.00 | 0.00 | 0.00 | 74 | 981.6 |
| 20260505081306 | 56 | 196 | 0.0 | 0.0 | 0.00 | 0.00 | 0.00 | 73 | 981.7 |
| 20260505080309 | 56 | 196 | 0.0 | 0.0 | 0.00 | 0.00 | 0.00 | 72 | 981.6 |
| 20260505074806 | 56 | 196 | 0.0 | 0.9 | 0.00 | 0.00 | 0.00 | 71 | 981.5 |
| 20260505074307 | 56 | 196 | 0.0 | 0.9 | 0.00 | 0.00 | 0.00 | 70 | 981.4 |
| 20260505073807 | 56 | 197 | 0.0 | 0.9 | 0.00 | 0.00 | 0.00 | 71 | 981.4 |
| 20260505073308 | 56 | 196 | 0.0 | 0.9 | 0.00 | 0.00 | 0.00 | 71 | 981.4 |
| 20260505071806 | 56 | 281 | 0.0 | 0.0 | 0.00 | 0.00 | 0.00 | 71 | 981.5 |
| 20260505070806 | 56 | 281 | 0.0 | 0.0 | 0.00 | 0.00 | 0.00 | 72 | 981.4 |
| 20260505070306 | 56 | 281 | 0.0 | 0.0 | 0.00 | 0.00 | 0.00 | 73 | 981.4 |
| 20260505064807 | 56 | 281 | 0.0 | 0.0 | 0.00 | 0.00 | 0.00 | 74 | 981.4 |
| 20260505064306 | 56 | 281 | 0.0 | 0.0 | 0.00 | 0.00 | 0.00 | 74 | 981.4 |
| 20260505063807 | 56 | 281 | 0.0 | 0.0 | 0.00 | 0.00 | 0.00 | 73 | 981.4 |
| 20260505063309 | 56 | 322 | 0.0 | 0.0 | 0.00 | 0.00 | 0.00 | 74 | 981.3 |
| 20260505061808 | 56 | 220 | 0.0 | 0.0 | 0.00 | 0.00 | 0.00 | 74 | 981.3 |
| 20260505061307 | 56 | 355 | 0.0 | 0.0 | 0.00 | 0.00 | 0.00 | 73 | 981.2 |
| 20260505060806 | 56 | 355 | 0.0 | 0.0 | 0.00 | 0.00 | 0.00 | 75 | 981.2 |
| 20260505060306 | 57 | 355 | 0.0 | 0.0 | 0.00 | 0.00 | 0.00 | 72 | 981.2 |
| 20260505054807 | 58 | 355 | 0.0 | 0.0 | 0.00 | 0.00 | 0.00 | 71 | 981.3 |
| 20260505054306 | 58 | 355 | 0.0 | 0.0 | 0.00 | 0.00 | 0.00 | 72 | 981.3 |
| 20260505053307 | 58 | 227 | 0.0 | 0.0 | 0.00 | 0.00 | 0.00 | 68 | 981.3 |
| 20260505051806 | 59 | 333 | 0.0 | 0.0 | 0.00 | 0.00 | 0.00 | 65 | 981.6 |
| 20260505051306 | 59 | 333 | 0.0 | 0.0 | 0.00 | 0.00 | 0.00 | 68 | 981.6 |
| 20260505050807 | 59 | 333 | 0.0 | 0.0 | 0.00 | 0.00 | 0.00 | 70 | 981.6 |
| 20260505050307 | 59 | 333 | 0.0 | 0.0 | 0.00 | 0.00 | 0.00 | 64 | 981.6 |
| 20260505041141 | 61 | 218 | 0.0 | 0.0 | 0.00 | 0.00 | 0.00 | 68 | 981.6 |
| 20260505040307 | 61 | 218 | 0.0 | 0.0 | 0.00 | 0.00 | 0.00 | 67 | 981.6 |
| 20260505034807 | 61 | 211 | 0.0 | 0.0 | 0.00 | 0.00 | 0.00 | 66 | 981.7 |
| 20260505034306 | 62 | 211 | 0.0 | 0.0 | 0.00 | 0.00 | 0.00 | 65 | 981.7 |
| 20260505033806 | 62 | 211 | 0.0 | 0.0 | 0.00 | 0.00 | 0.00 | 66 | 981.7 |
| 20260505033307 | 62 | 211 | 0.0 | 0.0 | 0.00 | 0.00 | 0.00 | 63 | 981.7 |
| 20260505031807 | 63 | 211 | 0.0 | 0.0 | 0.00 | 0.00 | 0.00 | 64 | 981.8 |
| 20260505031308 | 63 | 211 | 0.0 | 0.0 | 0.00 | 0.00 | 0.00 | 60 | 981.7 |
| 20260505030308 | 62 | 211 | 0.0 | 0.0 | 0.00 | 0.00 | 0.00 | 59 | 981.7 |
| 20260505024808 | 62 | 211 | 0.0 | 0.0 | 0.00 | 0.00 | 0.00 | 66 | 981.7 |
| 20260505024306 | 62 | 211 | 0.0 | 0.0 | 0.00 | 0.00 | 0.00 | 65 | 981.6 |
| 20260505023806 | 62 | 211 | 0.0 | 0.0 | 0.00 | 0.00 | 0.00 | 66 | 981.6 |
| 20260505023308 | 62 | 211 | 0.0 | 0.0 | 0.00 | 0.00 | 0.00 | 63 | 981.6 |
| 20260505014807 | 64 | 348 | 0.0 | 0.9 | 0.00 | 0.00 | 0.00 | 58 | 981.3 |
| 20260505013806 | 64 | 235 | 0.0 | 0.9 | 0.00 | 0.00 | 0.00 | 55 | 981.1 |
| 20260505013307 | 64 | 338 | 0.0 | 0.9 | 0.00 | 0.00 | 0.00 | 54 | 981.1 |
| 20260505011808 | 66 | 227 | 0.0 | 0.0 | 0.00 | 0.00 | 0.00 | 52 | 980.9 |
| 20260505011306 | 67 | 227 | 0.0 | 0.0 | 0.00 | 0.00 | 0.00 | 52 | 980.9 |
| 20260505010808 | 67 | 227 | 0.0 | 0.0 | 0.00 | 0.00 | 0.00 | 52 | 980.9 |
| 20260505010306 | 67 | 311 | 0.0 | 0.0 | 0.00 | 0.00 | 0.00 | 53 | 980.9 |
| 20260505004807 | 69 | 311 | 0.0 | 0.9 | 0.00 | 0.00 | 0.00 | 48 | 980.8 |
| 20260505004306 | 70 | 311 | 0.0 | 0.9 | 0.00 | 0.00 | 0.00 | 47 | 980.7 |
| 20260505003806 | 70 | 259 | 0.0 | 0.9 | 0.00 | 0.00 | 0.00 | 50 | 980.7 |
| 20260505001307 | 72 | 212 | 0.0 | 1.7 | 0.00 | 0.00 | 0.00 | 37 | 980.6 |
| 20260505000806 | 72 | 207 | 0.9 | 1.7 | 0.00 | 0.00 | 0.00 | 36 | 980.5 |
| 20260505000308 | 72 | 195 | 0.0 | 1.7 | 0.00 | 0.00 | 0.00 | 36 | 980.6 |
| 20260504234807 | 73 | 201 | 0.0 | 2.6 | 0.00 | 0.00 | 0.00 | 37 | 980.4 |
| 20260504234307 | 73 | 188 | 0.0 | 2.6 | 0.00 | 0.00 | 0.00 | 36 | 980.3 |
| 20260504233806 | 74 | 204 | 0.0 | 2.6 | 0.00 | 0.00 | 0.00 | 35 | 980.3 |
| 20260504233308 | 74 | 198 | 0.0 | 2.6 | 0.00 | 0.00 | 0.00 | 35 | 980.2 |
| 20260504231807 | 74 | 191 | 0.0 | 2.6 | 0.00 | 0.00 | 0.00 | 32 | 980.1 |
| 20260504231307 | 74 | 193 | 0.0 | 1.7 | 0.00 | 0.00 | 0.00 | 32 | 980.0 |
| 20260504230807 | 75 | 191 | 0.0 | 1.7 | 0.00 | 0.00 | 0.00 | 31 | 980.0 |
| 20260504230307 | 75 | 180 | 0.0 | 1.7 | 0.00 | 0.00 | 0.00 | 30 | 980.0 |
| 20260504224806 | 75 | 195 | 0.0 | 1.7 | 0.00 | 0.00 | 0.00 | 31 | 980.0 |
| 20260504224306 | 75 | 203 | 0.0 | 2.6 | 0.00 | 0.00 | 0.00 | 30 | 980.0 |
| 20260504223808 | 75 | 203 | 0.9 | 2.6 | 0.00 | 0.00 | 0.00 | 29 | 980.0 |
| 20260504223308 | 75 | 183 | 0.0 | 1.7 | 0.00 | 0.00 | 0.00 | 28 | 980.1 |
| 20260504221808 | 76 | 199 | 0.0 | 2.6 | 0.00 | 0.00 | 0.00 | 27 | 980.2 |
| 20260504221307 | 76 | 185 | 0.9 | 2.6 | 0.00 | 0.00 | 0.00 | 28 | 980.2 |
| 20260504220807 | 76 | 192 | 0.0 | 2.6 | 0.00 | 0.00 | 0.00 | 29 | 980.2 |
| 20260504220306 | 76 | 198 | 0.0 | 2.6 | 0.00 | 0.00 | 0.00 | 29 | 980.2 |
| 20260504214807 | 76 | 190 | 0.0 | 1.7 | 0.00 | 0.00 | 0.00 | 30 | 980.1 |
| 20260504214307 | 77 | 190 | 0.0 | 2.6 | 0.00 | 0.00 | 0.00 | 29 | 980.1 |
| 20260504213806 | 77 | 193 | 0.0 | 4.3 | 0.00 | 0.00 | 0.00 | 28 | 980.0 |
| 20260504213307 | 77 | 201 | 0.9 | 4.3 | 0.00 | 0.00 | 0.00 | 28 | 980.0 |
| 20260504211807 | 77 | 197 | 0.0 | 2.6 | 0.00 | 0.00 | 0.00 | 29 | 980.1 |
| 20260504211307 | 77 | 180 | 0.9 | 2.6 | 0.00 | 0.00 | 0.00 | 28 | 980.1 |
| 20260504210807 | 77 | 149 | 0.0 | 2.6 | 0.00 | 0.00 | 0.00 | 28 | 980.1 |
| 20260504204807 | 77 | 123 | 0.0 | 5.2 | 0.00 | 0.00 | 0.00 | 29 | 980.3 |
| 20260504204307 | 77 | 187 | 0.9 | 5.2 | 0.00 | 0.00 | 0.00 | 28 | 980.3 |
| 20260504203810 | 77 | 206 | 0.0 | 2.6 | 0.00 | 0.00 | 0.00 | 30 | 980.4 |